Terminal Aerodrome Forecast
Issued by NWS Grand Forks, ND

Home | Current Version | Previous Version | Graphics & Text | Print | Product List | Glossary On
Versions: 1 2 3 4 5 6 7 8 9 10 11 12 13 14 15 16 17 18 19 20 21
781
FTUS43 KFGF 242224 AAC
TAFFAR
TAF AMD
KFAR 242224Z 2422/2518 VRB04KT 1/2SM SN OVC009
     FM250000 VRB05KT 3SM -SN OVC015
      TEMPO 2500/2503 1SM -SN BKN009
     FM250300 19004KT 2SM -SN OVC015
     FM250500 22005KT P6SM OVC008
     FM251300 25008KT P6SM BKN030=

USA.gov is the U.S. government's official web portal to all federal, state and local government web resources and services.